createdAt,value
2023-05-05T00:01:09.186Z,14.70
2023-05-05T00:03:36.228Z,14.70
2023-05-05T00:06:04.208Z,14.70
2023-05-05T00:08:31.280Z,14.70
2023-05-05T00:10:57.873Z,14.70
2023-05-05T00:13:24.643Z,14.60
2023-05-05T00:15:52.531Z,14.70
2023-05-05T00:18:20.332Z,14.60
2023-05-05T00:20:48.038Z,14.70
2023-05-05T00:23:15.938Z,14.60
2023-05-05T00:25:42.774Z,14.50
2023-05-05T00:28:09.461Z,14.50
2023-05-05T00:30:36.432Z,14.50
2023-05-05T00:33:03.135Z,14.40
2023-05-05T00:35:29.757Z,14.40
2023-05-05T00:37:56.316Z,14.50
2023-05-05T00:40:23.505Z,14.40
2023-05-05T00:42:53.332Z,14.40
2023-05-05T00:45:20.510Z,14.40
2023-05-05T00:47:56.836Z,14.40
2023-05-05T00:50:29.211Z,14.30
2023-05-05T00:53:01.890Z,14.30
2023-05-05T00:55:32.391Z,14.20
2023-05-05T00:58:00.338Z,14.20
2023-05-05T01:00:27.642Z,14.10
2023-05-05T01:02:54.405Z,14.10
2023-05-05T01:05:23.526Z,14.10
2023-05-05T01:08:17.437Z,14.00
2023-05-05T01:10:58.701Z,14.00
2023-05-05T01:13:31.367Z,14.00
2023-05-05T01:16:25.129Z,14.00
2023-05-05T01:19:10.420Z,14.00
2023-05-05T01:21:56.169Z,14.00
2023-05-05T01:25:11.362Z,13.90
2023-05-05T01:28:08.008Z,13.80
2023-05-05T01:31:11.667Z,13.80
2023-05-05T01:33:47.216Z,13.70
2023-05-05T01:36:22.800Z,13.70
2023-05-05T01:38:55.682Z,13.70
2023-05-05T01:41:28.412Z,13.70
2023-05-05T01:43:59.644Z,13.70
2023-05-05T01:46:27.677Z,13.70
2023-05-05T01:48:55.813Z,13.60
2023-05-05T01:51:24.575Z,13.60
2023-05-05T01:53:54.211Z,13.70
2023-05-05T01:56:23.682Z,13.70
2023-05-05T01:58:51.636Z,13.80
2023-05-05T02:01:21.982Z,13.70
2023-05-05T02:03:51.281Z,13.80
2023-05-05T02:06:20.433Z,13.70
2023-05-05T02:08:48.702Z,13.60
2023-05-05T02:11:17.216Z,13.70
2023-05-05T02:13:44.982Z,13.60
2023-05-05T02:16:13.052Z,13.60
2023-05-05T02:18:41.466Z,13.60
2023-05-05T02:21:08.484Z,13.60
2023-05-05T02:23:36.237Z,13.60
2023-05-05T02:26:11.409Z,13.70
2023-05-05T02:28:48.669Z,13.60
2023-05-05T02:31:17.495Z,13.60
2023-05-05T02:33:45.984Z,13.60
2023-05-05T02:36:22.001Z,13.70
2023-05-05T02:38:54.327Z,13.60
2023-05-05T02:41:21.749Z,13.50
2023-05-05T02:43:50.939Z,13.50
2023-05-05T02:46:17.856Z,13.50
2023-05-05T02:48:44.904Z,13.40
2023-05-05T02:51:11.494Z,13.30
2023-05-05T02:53:38.885Z,13.20
2023-05-05T02:56:32.292Z,13.20
2023-05-05T02:59:36.679Z,13.30
2023-05-05T03:02:28.682Z,13.30
2023-05-05T03:05:06.429Z,13.30
2023-05-05T03:07:57.585Z,13.30
2023-05-05T03:10:30.364Z,13.30
2023-05-05T03:13:00.778Z,13.30
2023-05-05T03:15:41.367Z,13.30
2023-05-05T03:18:10.776Z,13.30
2023-05-05T03:20:39.196Z,13.20
2023-05-05T03:23:06.405Z,13.20
2023-05-05T03:25:47.037Z,13.20
2023-05-05T03:28:14.865Z,13.20
2023-05-05T03:30:42.280Z,13.20
2023-05-05T03:33:11.279Z,13.20
2023-05-05T03:35:37.957Z,13.30
2023-05-05T03:38:04.574Z,13.20
2023-05-05T03:40:42.950Z,13.20
2023-05-05T03:43:11.247Z,13.20
2023-05-05T03:45:38.064Z,13.10
2023-05-05T03:48:05.161Z,13.10
2023-05-05T03:50:31.805Z,13.20
2023-05-05T03:52:58.377Z,13.10
2023-05-05T03:55:24.990Z,13.10
2023-05-05T03:57:51.770Z,13.10
2023-05-05T04:00:18.681Z,13.10
2023-05-05T04:02:45.657Z,13.10
2023-05-05T04:05:12.400Z,13.10
2023-05-05T04:07:39.004Z,13.10
2023-05-05T04:10:06.765Z,13.10
2023-05-05T04:12:33.613Z,13.10
2023-05-05T04:15:00.682Z,13.10
2023-05-05T04:17:27.304Z,13.00
2023-05-05T04:19:53.925Z,13.00
2023-05-05T04:22:20.529Z,12.90
2023-05-05T04:24:47.495Z,13.00
2023-05-05T04:27:14.045Z,12.90
2023-05-05T04:29:40.678Z,12.90
2023-05-05T04:32:07.383Z,12.90
2023-05-05T04:34:33.965Z,12.90
2023-05-05T04:37:00.552Z,12.90
2023-05-05T04:39:27.132Z,12.90
2023-05-05T04:41:53.838Z,12.90
2023-05-05T04:44:20.621Z,12.90
2023-05-05T04:46:47.258Z,12.90
2023-05-05T04:49:13.855Z,12.90
2023-05-05T04:51:43.652Z,12.90
2023-05-05T04:54:10.483Z,12.90
2023-05-05T04:56:37.083Z,12.90
2023-05-05T04:59:03.794Z,12.90
2023-05-05T05:01:30.482Z,12.90
2023-05-05T05:03:57.214Z,13.00
2023-05-05T05:06:24.029Z,13.00
2023-05-05T05:08:50.661Z,13.00
2023-05-05T05:11:17.258Z,13.10
2023-05-05T05:13:43.862Z,13.20
2023-05-05T05:16:11.424Z,13.30
2023-05-05T05:18:38.174Z,13.30
2023-05-05T05:21:04.758Z,13.30
2023-05-05T05:23:31.483Z,13.40
2023-05-05T05:25:58.280Z,13.40
2023-05-05T05:28:24.903Z,13.40
2023-05-05T05:30:52.573Z,13.40
2023-05-05T05:33:19.725Z,13.40
2023-05-05T05:35:46.406Z,13.40
2023-05-05T05:38:13.025Z,13.40
2023-05-05T05:40:39.703Z,13.40
2023-05-05T05:43:06.373Z,13.40
2023-05-05T05:45:32.983Z,13.40
2023-05-05T05:47:59.626Z,13.50
2023-05-05T05:50:28.471Z,13.50
2023-05-05T05:52:55.429Z,13.60
2023-05-05T05:55:22.070Z,13.60
2023-05-05T05:57:48.689Z,13.70
2023-05-05T06:00:20.774Z,13.80
2023-05-05T06:02:47.816Z,13.90
2023-05-05T06:05:14.459Z,14.00
2023-05-05T06:07:41.171Z,14.10
2023-05-05T06:10:25.733Z,14.20
2023-05-05T06:12:52.994Z,14.20
2023-05-05T06:15:19.649Z,14.40
2023-05-05T06:17:46.403Z,14.40
2023-05-05T06:20:13.999Z,14.50
2023-05-05T06:22:40.715Z,14.60
2023-05-05T06:25:07.617Z,14.60
2023-05-05T06:27:34.511Z,14.70
2023-05-05T06:30:01.144Z,14.70
2023-05-05T06:32:27.744Z,14.80
2023-05-05T06:34:54.383Z,14.80
2023-05-05T06:37:20.990Z,14.90
2023-05-05T06:39:47.567Z,15.00
2023-05-05T06:42:14.151Z,15.10
2023-05-05T06:44:40.718Z,15.10
2023-05-05T06:47:07.782Z,15.30
2023-05-05T06:49:34.640Z,15.30
2023-05-05T06:52:01.640Z,15.40
2023-05-05T06:54:28.234Z,15.50
2023-05-05T06:56:54.815Z,15.50
2023-05-05T06:59:21.439Z,15.60
2023-05-05T07:01:48.123Z,15.70
2023-05-05T07:04:14.807Z,15.80
2023-05-05T07:06:42.672Z,15.80
2023-05-05T07:09:09.232Z,15.90
2023-05-05T07:11:36.070Z,15.90
2023-05-05T07:14:03.309Z,16.00
2023-05-05T07:16:29.928Z,16.30
2023-05-05T07:18:56.761Z,16.40
2023-05-05T07:21:23.323Z,16.60
2023-05-05T07:23:49.910Z,16.70
2023-05-05T07:26:16.555Z,16.80
2023-05-05T07:28:43.956Z,16.80
2023-05-05T07:31:10.754Z,16.80
2023-05-05T07:33:37.495Z,16.90
2023-05-05T07:36:04.458Z,16.90
2023-05-05T07:38:31.117Z,17.00
2023-05-05T07:40:57.871Z,17.00
2023-05-05T07:43:24.531Z,17.00
2023-05-05T07:45:51.602Z,17.00
2023-05-05T07:48:18.275Z,17.10
2023-05-05T07:50:44.983Z,17.10
2023-05-05T07:53:14.802Z,17.20
2023-05-05T07:55:42.028Z,17.30
2023-05-05T07:58:10.699Z,17.30
2023-05-05T08:00:37.662Z,17.30
2023-05-05T08:03:04.850Z,17.40
2023-05-05T08:05:31.521Z,17.40
2023-05-05T08:07:58.182Z,17.50
2023-05-05T08:10:24.898Z,17.50
2023-05-05T08:12:51.672Z,17.60
2023-05-05T08:15:18.560Z,17.60
2023-05-05T08:17:47.611Z,17.70
2023-05-05T08:20:15.044Z,17.80
2023-05-05T08:22:42.513Z,17.80
2023-05-05T08:25:12.993Z,17.90
2023-05-05T08:27:41.058Z,17.90
2023-05-05T08:30:08.802Z,17.90
2023-05-05T08:32:35.586Z,18.10
2023-05-05T08:35:03.408Z,18.20
2023-05-05T08:37:30.622Z,18.20
2023-05-05T08:39:58.310Z,18.20
2023-05-05T08:42:36.168Z,18.30
2023-05-05T08:45:06.127Z,18.30
2023-05-05T08:47:33.149Z,18.40
2023-05-05T08:50:01.676Z,18.50
2023-05-05T08:52:33.519Z,18.50
2023-05-05T08:55:24.305Z,18.60
2023-05-05T08:57:53.125Z,18.60
2023-05-05T09:00:20.358Z,18.70
2023-05-05T09:02:47.917Z,18.70
2023-05-05T09:05:15.284Z,18.80
2023-05-05T09:07:43.677Z,18.90
2023-05-05T09:10:11.772Z,18.90
2023-05-05T09:12:41.988Z,18.90
2023-05-05T09:15:10.476Z,19.00
2023-05-05T09:17:38.214Z,19.00
2023-05-05T09:20:07.707Z,19.00
2023-05-05T09:22:39.246Z,19.10
2023-05-05T09:25:08.692Z,19.20
2023-05-05T09:27:42.576Z,19.20
2023-05-05T09:30:10.970Z,19.20
2023-05-05T09:32:48.802Z,19.20
2023-05-05T09:35:16.854Z,19.30
2023-05-05T09:37:43.905Z,19.40
2023-05-05T09:40:13.191Z,19.30
2023-05-05T09:42:40.897Z,19.40
2023-05-05T09:45:28.029Z,19.40
2023-05-05T09:47:59.200Z,19.40
2023-05-05T09:50:30.302Z,19.50
2023-05-05T09:52:59.822Z,19.50
2023-05-05T09:55:26.875Z,19.50
2023-05-05T09:57:53.479Z,19.60
2023-05-05T10:00:20.590Z,19.60
2023-05-05T10:02:47.577Z,19.60
2023-05-05T10:05:18.559Z,19.70
2023-05-05T10:07:47.409Z,19.80
2023-05-05T10:10:18.087Z,19.90
2023-05-05T10:12:47.669Z,20.00
2023-05-05T10:15:15.916Z,20.00
2023-05-05T10:18:02.465Z,20.10
2023-05-05T10:20:33.416Z,20.10
2023-05-05T10:23:05.979Z,20.20
2023-05-05T10:25:42.607Z,20.30
2023-05-05T10:28:11.666Z,20.40
2023-05-05T10:30:46.024Z,20.50
2023-05-05T10:33:31.684Z,20.50
2023-05-05T10:36:02.227Z,20.60
2023-05-05T10:38:31.067Z,20.60
2023-05-05T10:40:59.454Z,20.70
2023-05-05T10:43:27.659Z,20.70
2023-05-05T10:45:55.586Z,20.80
2023-05-05T10:48:33.399Z,20.90
2023-05-05T10:51:11.936Z,21.00
2023-05-05T10:54:16.547Z,21.10
2023-05-05T10:56:43.601Z,21.20
2023-05-05T10:59:38.501Z,21.30
2023-05-05T11:02:27.179Z,21.30
2023-05-05T11:05:17.461Z,21.40
2023-05-05T11:07:45.314Z,21.50
2023-05-05T11:10:14.892Z,21.70
2023-05-05T11:12:57.866Z,21.70
2023-05-05T11:15:27.503Z,21.80
2023-05-05T11:17:56.449Z,21.80
2023-05-05T11:20:35.854Z,21.80
2023-05-05T11:23:02.450Z,21.90
2023-05-05T11:25:38.935Z,21.80
2023-05-05T11:28:12.642Z,21.90
2023-05-05T11:30:58.732Z,21.90
2023-05-05T11:33:36.979Z,21.90
2023-05-05T11:36:10.302Z,22.00
2023-05-05T11:38:42.497Z,22.00
2023-05-05T11:41:28.025Z,22.00
2023-05-05T11:44:14.393Z,22.00
2023-05-05T11:47:01.730Z,22.10
2023-05-05T11:49:39.091Z,22.10
2023-05-05T11:52:06.810Z,22.10
2023-05-05T11:54:36.159Z,22.20
2023-05-05T11:57:08.182Z,22.20
2023-05-05T11:59:37.235Z,22.30
2023-05-05T12:02:04.743Z,22.30
2023-05-05T12:04:32.060Z,22.40
2023-05-05T12:06:59.309Z,22.50
2023-05-05T12:09:26.721Z,22.60
2023-05-05T12:11:56.231Z,22.70
2023-05-05T12:14:24.320Z,22.80
2023-05-05T12:16:58.015Z,22.70
2023-05-05T12:19:29.990Z,22.80
2023-05-05T12:21:57.018Z,22.80
2023-05-05T12:24:23.713Z,22.80
2023-05-05T12:26:50.786Z,22.90
2023-05-05T12:29:29.124Z,22.90
2023-05-05T12:31:57.790Z,22.90
2023-05-05T12:34:24.572Z,22.90
2023-05-05T12:36:51.296Z,23.00
2023-05-05T12:39:18.184Z,23.00
2023-05-05T12:41:44.893Z,23.00
2023-05-05T12:44:11.495Z,23.00
2023-05-05T12:46:48.364Z,23.00
2023-05-05T12:49:15.407Z,23.00
2023-05-05T12:51:56.868Z,23.00
2023-05-05T12:54:25.163Z,23.00
2023-05-05T12:56:51.763Z,23.10
2023-05-05T12:59:38.603Z,23.10
2023-05-05T13:02:05.505Z,23.10
2023-05-05T13:04:32.571Z,23.10
2023-05-05T13:07:16.281Z,23.20
2023-05-05T13:09:43.649Z,23.20
2023-05-05T13:12:13.227Z,23.30
2023-05-05T13:14:40.816Z,23.30
2023-05-05T13:17:07.974Z,23.30
2023-05-05T13:19:41.464Z,23.30
2023-05-05T13:22:12.918Z,23.50
2023-05-05T13:24:50.624Z,23.60
2023-05-05T13:27:18.008Z,23.70
2023-05-05T13:29:44.648Z,23.80
2023-05-05T13:32:11.437Z,23.80
2023-05-05T13:34:39.122Z,23.80
2023-05-05T13:37:06.140Z,23.70
2023-05-05T13:39:32.858Z,23.60
2023-05-05T13:41:59.460Z,23.50
2023-05-05T13:44:26.064Z,23.50
2023-05-05T13:46:53.022Z,23.60
2023-05-05T13:49:20.143Z,23.70
2023-05-05T13:51:47.064Z,23.80
2023-05-05T13:54:13.845Z,23.80
2023-05-05T13:56:40.827Z,23.80
2023-05-05T13:59:07.483Z,23.70
2023-05-05T14:01:34.166Z,23.70
2023-05-05T14:04:03.643Z,23.60
2023-05-05T14:06:32.620Z,23.50
2023-05-05T14:08:59.298Z,23.40
2023-05-05T14:11:27.326Z,23.30
2023-05-05T14:13:54.040Z,23.20
2023-05-05T14:16:20.719Z,23.10
2023-05-05T14:18:47.339Z,23.10
2023-05-05T14:21:13.974Z,22.90
2023-05-05T14:23:40.726Z,22.90
2023-05-05T14:26:08.992Z,22.80
2023-05-05T14:28:36.237Z,22.80
2023-05-05T14:31:02.896Z,22.70
2023-05-05T14:33:29.498Z,22.70
2023-05-05T14:35:56.363Z,22.60
2023-05-05T14:38:23.005Z,22.50
2023-05-05T14:40:49.697Z,22.40
2023-05-05T14:43:16.302Z,22.30
2023-05-05T14:45:44.115Z,22.30
2023-05-05T14:48:10.873Z,22.20
2023-05-05T14:50:38.471Z,22.20
2023-05-05T14:53:05.237Z,22.10
2023-05-05T14:55:32.911Z,22.00
2023-05-05T14:57:59.534Z,21.90
2023-05-05T15:00:26.765Z,21.90
2023-05-05T15:02:53.462Z,21.90
2023-05-05T15:05:20.207Z,22.10
2023-05-05T15:07:46.883Z,22.20
2023-05-05T15:10:13.601Z,22.20
2023-05-05T15:12:40.610Z,22.20
2023-05-05T15:15:08.508Z,22.20
2023-05-05T15:17:37.271Z,22.20
2023-05-05T15:20:05.353Z,22.30
2023-05-05T15:22:32.048Z,22.40
2023-05-05T15:24:58.709Z,22.40
2023-05-05T15:27:25.434Z,22.40
2023-05-05T15:29:52.445Z,22.30
2023-05-05T15:32:19.039Z,22.20
2023-05-05T15:34:46.813Z,22.00
2023-05-05T15:37:14.265Z,21.90
2023-05-05T15:39:40.852Z,22.00
2023-05-05T15:42:07.679Z,22.10
2023-05-05T15:44:34.336Z,21.90
2023-05-05T15:47:00.940Z,21.80
2023-05-05T15:49:27.532Z,21.70
2023-05-05T15:51:54.102Z,21.70
2023-05-05T15:54:20.692Z,21.80
2023-05-05T15:56:47.536Z,21.70
2023-05-05T15:59:14.115Z,21.70
2023-05-05T16:01:40.757Z,21.70
2023-05-05T16:04:07.469Z,21.70
2023-05-05T16:06:34.117Z,21.70
2023-05-05T16:09:00.728Z,21.70
2023-05-05T16:11:27.397Z,21.80
2023-05-05T16:13:54.084Z,21.90
2023-05-05T16:16:21.068Z,21.90
2023-05-05T16:18:47.976Z,22.00
2023-05-05T16:21:15.044Z,22.10
2023-05-05T16:23:41.743Z,22.10
2023-05-05T16:26:08.446Z,22.20
2023-05-05T16:28:35.209Z,22.20
2023-05-05T16:31:02.333Z,22.20
2023-05-05T16:33:29.239Z,22.20
2023-05-05T16:35:56.416Z,22.20
2023-05-05T16:38:23.105Z,22.20
2023-05-05T16:40:49.733Z,22.20
2023-05-05T16:43:16.487Z,22.20
2023-05-05T16:45:43.455Z,22.10
2023-05-05T16:48:10.307Z,22.00
2023-05-05T16:50:36.940Z,22.00
2023-05-05T16:53:03.513Z,22.10
2023-05-05T16:55:30.145Z,22.00
2023-05-05T16:57:57.036Z,22.00
2023-05-05T17:00:23.654Z,22.10
2023-05-05T17:02:50.541Z,22.10
2023-05-05T17:05:17.541Z,22.10
2023-05-05T17:07:44.561Z,22.10
2023-05-05T17:10:11.212Z,22.10
2023-05-05T17:12:37.911Z,22.00
2023-05-05T17:15:05.265Z,22.00
2023-05-05T17:17:31.960Z,22.00
2023-05-05T17:19:58.669Z,22.00
2023-05-05T17:22:25.467Z,21.90
2023-05-05T17:24:52.024Z,21.80
2023-05-05T17:27:18.624Z,21.80
2023-05-05T17:29:45.244Z,21.70
2023-05-05T17:32:11.996Z,21.70
2023-05-05T17:34:38.734Z,21.60
2023-05-05T17:37:05.385Z,21.60
2023-05-05T17:39:32.507Z,21.50
2023-05-05T17:42:01.132Z,21.50
2023-05-05T17:44:27.686Z,21.50
2023-05-05T17:46:54.281Z,21.40
2023-05-05T17:49:21.508Z,21.50
2023-05-05T17:51:48.158Z,21.40
2023-05-05T17:54:14.738Z,21.40
2023-05-05T17:56:41.377Z,21.40
2023-05-05T17:59:08.681Z,21.40
2023-05-05T18:01:35.348Z,21.40
2023-05-05T18:04:02.236Z,21.30
2023-05-05T18:06:30.416Z,21.30
2023-05-05T18:08:57.336Z,21.20
2023-05-05T18:11:27.524Z,21.10
2023-05-05T18:13:55.613Z,21.00
2023-05-05T18:16:22.343Z,21.00
2023-05-05T18:18:49.311Z,20.90
2023-05-05T18:21:15.956Z,20.80
2023-05-05T18:23:42.552Z,20.90
2023-05-05T18:26:09.267Z,20.80
2023-05-05T18:28:36.855Z,20.80
2023-05-05T18:31:03.556Z,20.70
2023-05-05T18:33:30.205Z,20.60
2023-05-05T18:35:57.686Z,20.70
2023-05-05T18:38:24.302Z,20.60
2023-05-05T18:40:51.234Z,20.50
2023-05-05T18:43:17.845Z,20.50
2023-05-05T18:45:44.431Z,20.40
2023-05-05T18:48:11.609Z,20.40
2023-05-05T18:50:38.249Z,20.30
2023-05-05T18:53:04.989Z,20.20
2023-05-05T18:55:31.572Z,20.20
2023-05-05T18:57:58.189Z,20.10
2023-05-05T19:00:25.030Z,20.10
2023-05-05T19:02:51.782Z,20.20
2023-05-05T19:05:18.645Z,20.10
2023-05-05T19:07:45.628Z,20.10
2023-05-05T19:10:12.605Z,20.10
2023-05-05T19:12:39.254Z,20.00
2023-05-05T19:15:06.526Z,20.00
2023-05-05T19:17:33.221Z,20.10
2023-05-05T19:20:00.266Z,20.10
2023-05-05T19:22:27.041Z,20.00
2023-05-05T19:24:53.712Z,19.80
2023-05-05T19:27:20.396Z,19.70
2023-05-05T19:29:51.822Z,19.70
2023-05-05T19:32:19.562Z,19.70
2023-05-05T19:34:46.511Z,19.50
2023-05-05T19:37:13.149Z,19.50
2023-05-05T19:39:39.824Z,19.40
2023-05-05T19:42:07.631Z,19.30
2023-05-05T19:44:34.230Z,19.10
2023-05-05T19:47:00.968Z,19.10
2023-05-05T19:49:27.722Z,19.00
2023-05-05T19:51:54.408Z,18.90
2023-05-05T19:54:21.291Z,18.80
2023-05-05T19:56:48.021Z,18.80
2023-05-05T19:59:14.655Z,18.70
2023-05-05T20:01:41.549Z,18.70
2023-05-05T20:04:08.227Z,18.80
2023-05-05T20:06:36.117Z,18.80
2023-05-05T20:09:03.133Z,18.80
2023-05-05T20:11:30.595Z,18.80
2023-05-05T20:13:57.614Z,18.80
2023-05-05T20:16:24.331Z,18.80
2023-05-05T20:18:50.970Z,18.80
2023-05-05T20:21:17.626Z,18.70
2023-05-05T20:23:45.826Z,18.60
2023-05-05T20:26:12.818Z,18.50
2023-05-05T20:28:42.496Z,18.40
2023-05-05T20:31:10.682Z,18.40
2023-05-05T20:33:37.359Z,18.30
2023-05-05T20:36:04.199Z,18.20
2023-05-05T20:38:30.864Z,18.10
2023-05-05T20:40:57.500Z,18.00
2023-05-05T20:43:24.767Z,18.00
2023-05-05T20:45:51.610Z,17.90
2023-05-05T20:48:18.326Z,17.90
2023-05-05T20:50:44.944Z,17.90
2023-05-05T20:53:13.748Z,17.90
2023-05-05T20:55:40.832Z,17.90
2023-05-05T20:58:07.437Z,17.90
2023-05-05T21:00:34.195Z,18.00
2023-05-05T21:03:02.534Z,17.90
2023-05-05T21:05:29.876Z,17.90
2023-05-05T21:07:58.280Z,17.90
2023-05-05T21:10:25.849Z,17.80
2023-05-05T21:12:52.500Z,17.80
2023-05-05T21:15:19.188Z,17.80
2023-05-05T21:17:46.342Z,17.80
2023-05-05T21:20:13.485Z,17.80
2023-05-05T21:22:40.232Z,17.90
2023-05-05T21:25:20.596Z,17.90
2023-05-05T21:27:48.121Z,17.80
2023-05-05T21:30:15.453Z,17.70
2023-05-05T21:32:42.720Z,17.60
2023-05-05T21:35:10.049Z,17.50
2023-05-05T21:37:38.843Z,17.50
2023-05-05T21:40:10.579Z,17.40
2023-05-05T21:42:37.675Z,17.40
2023-05-05T21:45:04.654Z,17.30
2023-05-05T21:47:34.662Z,17.30
2023-05-05T21:50:01.450Z,17.20
2023-05-05T21:52:28.058Z,17.20
2023-05-05T21:54:54.637Z,17.20
2023-05-05T21:57:21.306Z,17.20
2023-05-05T21:59:48.121Z,17.10
2023-05-05T22:02:14.753Z,17.00
2023-05-05T22:04:41.397Z,16.90
2023-05-05T22:07:08.024Z,16.90
2023-05-05T22:09:34.644Z,16.90
2023-05-05T22:12:02.569Z,16.70
2023-05-05T22:14:29.390Z,16.70
2023-05-05T22:16:56.094Z,16.70
2023-05-05T22:19:22.968Z,16.70
2023-05-05T22:21:49.601Z,16.80
2023-05-05T22:24:16.245Z,16.60
2023-05-05T22:26:43.592Z,16.60
2023-05-05T22:29:10.803Z,16.70
2023-05-05T22:31:37.955Z,16.80
2023-05-05T22:34:05.090Z,16.80
2023-05-05T22:36:31.767Z,16.80
2023-05-05T22:38:58.524Z,16.80
2023-05-05T22:41:25.442Z,16.90
2023-05-05T22:43:52.106Z,16.90
2023-05-05T22:46:18.756Z,16.80
2023-05-05T22:48:45.316Z,16.80
2023-05-05T22:51:12.301Z,16.80
2023-05-05T22:53:39.117Z,16.80
2023-05-05T22:56:06.211Z,16.80
2023-05-05T22:58:32.862Z,16.80
2023-05-05T23:00:59.641Z,16.70
2023-05-05T23:03:26.642Z,16.50
2023-05-05T23:05:53.312Z,16.40
2023-05-05T23:08:20.471Z,16.30
2023-05-05T23:10:47.077Z,16.30
2023-05-05T23:13:13.744Z,16.20
2023-05-05T23:15:41.149Z,16.20
2023-05-05T23:18:08.040Z,16.20
2023-05-05T23:20:34.803Z,16.20
2023-05-05T23:23:01.425Z,16.20
2023-05-05T23:25:28.005Z,16.20
2023-05-05T23:27:54.587Z,16.20
2023-05-05T23:30:21.394Z,16.10
2023-05-05T23:32:48.023Z,16.10
2023-05-05T23:35:14.663Z,16.20
2023-05-05T23:37:41.293Z,16.10
2023-05-05T23:40:08.570Z,16.20
2023-05-05T23:42:35.215Z,16.10
2023-05-05T23:45:01.881Z,16.10
2023-05-05T23:47:28.463Z,16.10
2023-05-05T23:49:55.083Z,16.00
2023-05-05T23:52:22.047Z,15.90
2023-05-05T23:54:48.612Z,15.90
2023-05-05T23:57:15.229Z,15.90
2023-05-05T23:59:41.825Z,15.90
